Time;durP1;ratioP1;P1;durP2;ratioP2;P2;SDS_P1;SDS_P2;PMS_P1;PMS_P2;Temp;Humidity;BMP_temperature;BMP_pressure;BME280_temperature;BME280_humidity;BME280_pressure;Samples;Min_cycle;Max_cycle;Signal;HPM_P1;HPM_P2
2023/06/29 00:01:58;;;;;;;9.77;4.30;;;;;;;16.37;85.97;100949.75;5046272;28;20120;-55
2023/06/29 00:04:25;;;;;;;11.20;4.18;;;;;;;16.38;84.10;100950.59;5048975;28;20041;-56
2023/06/29 00:06:54;;;;;;;12.27;4.93;;;;;;;16.43;83.09;100943.09;5045606;28;20080;-55
2023/06/29 00:09:25;;;;;;;5.65;3.63;;;;;;;16.46;82.29;100946.38;5047594;28;20053;-58
2023/06/29 00:11:52;;;;;;;6.88;3.63;;;;;;;16.48;82.31;100943.59;5049225;28;20060;-55
2023/06/29 00:14:19;;;;;;;10.75;3.80;;;;;;;16.48;81.89;100948.91;5052175;28;20139;-58
2023/06/29 00:16:50;;;;;;;11.55;3.63;;;;;;;16.49;82.09;100941.78;5050964;28;20176;-58
2023/06/29 00:19:20;;;;;;;9.52;4.18;;;;;;;16.50;81.75;100941.66;5049488;28;20049;-56
2023/06/29 00:21:48;;;;;;;10.77;4.15;;;;;;;16.52;81.68;100949.50;5048434;28;20088;-58
2023/06/29 00:24:15;;;;;;;8.82;4.28;;;;;;;16.51;82.25;100947.81;5046879;28;21322;-58
2023/06/29 00:26:42;;;;;;;6.20;3.60;;;;;;;16.48;82.68;100948.91;5047505;28;20075;-58
2023/06/29 00:29:09;;;;;;;9.13;3.90;;;;;;;16.46;82.48;100943.72;5047374;28;20075;-58
2023/06/29 00:31:37;;;;;;;8.73;3.63;;;;;;;16.44;82.98;100937.69;5049053;28;20053;-54
2023/06/29 00:34:04;;;;;;;7.05;3.97;;;;;;;16.43;83.42;100935.13;5046623;28;20091;-53
2023/06/29 00:36:31;;;;;;;8.52;3.40;;;;;;;16.40;83.70;100933.56;5039018;28;20061;-56
2023/06/29 00:38:58;;;;;;;8.02;3.50;;;;;;;16.37;84.19;100935.63;5045810;28;20057;-55
2023/06/29 00:41:26;;;;;;;5.70;3.35;;;;;;;16.33;84.48;100935.00;5046292;28;20709;-59
2023/06/29 00:43:53;;;;;;;10.05;3.45;;;;;;;16.30;84.67;100945.88;5052071;28;20144;-57
2023/06/29 00:46:21;;;;;;;7.97;3.95;;;;;;;16.26;85.01;100944.44;5046124;28;20051;-56
2023/06/29 00:48:48;;;;;;;8.55;4.10;;;;;;;16.20;85.46;100937.75;5027882;28;20367;-55
2023/06/29 00:51:16;;;;;;;7.80;3.60;;;;;;;16.16;85.64;100930.16;5046060;28;20231;-57
2023/06/29 00:53:44;;;;;;;7.97;3.92;;;;;;;16.15;85.45;100929.31;5047029;28;20078;-55
2023/06/29 00:56:11;;;;;;;8.85;3.60;;;;;;;16.13;85.99;100925.94;5047346;28;20065;-56
2023/06/29 00:58:38;;;;;;;10.05;3.70;;;;;;;16.10;85.90;100923.50;5045340;28;20668;-53
2023/06/29 01:01:05;;;;;;;8.05;3.70;;;;;;;16.07;86.30;100921.09;5048680;28;20053;-56
2023/06/29 01:03:33;;;;;;;5.75;3.60;;;;;;;16.03;86.40;100918.78;5046340;28;20139;-56
2023/06/29 01:06:04;;;;;;;7.75;3.63;;;;;;;16.02;86.98;100914.44;5045599;28;20059;-51
2023/06/29 01:08:36;;;;;;;7.53;4.03;;;;;;;15.99;87.34;100914.69;5044074;28;20215;-52
2023/06/29 01:11:04;;;;;;;7.00;3.58;;;;;;;15.97;87.39;100914.78;5028662;28;20141;-54
2023/06/29 01:13:31;;;;;;;8.05;3.75;;;;;;;15.97;87.88;100916.59;5032522;28;20087;-52
2023/06/29 01:15:59;;;;;;;7.15;3.42;;;;;;;15.95;88.40;100914.94;5047747;28;20059;-56
2023/06/29 01:18:29;;;;;;;6.70;3.72;;;;;;;15.91;88.84;100912.63;5044814;28;20048;-56
2023/06/29 01:20:57;;;;;;;5.45;3.20;;;;;;;15.92;89.27;100916.97;5047599;28;20126;-54
2023/06/29 01:23:25;;;;;;;8.13;4.28;;;;;;;15.88;89.62;100913.69;5027350;28;20128;-56
2023/06/29 01:25:56;;;;;;;8.35;3.60;;;;;;;15.85;90.07;100905.09;5028755;28;20136;-56
2023/06/29 01:28:23;;;;;;;13.63;4.03;;;;;;;15.82;90.49;100900.91;5050908;28;20061;-56
2023/06/29 01:30:51;;;;;;;8.25;3.65;;;;;;;15.80;90.71;100905.47;5052133;28;20131;-59
2023/06/29 01:33:20;;;;;;;10.82;4.60;;;;;;;15.78;90.84;100904.75;5036489;28;20103;-56
2023/06/29 01:35:52;;;;;;;7.22;4.03;;;;;;;15.76;91.14;100897.84;5026211;28;20343;-56
2023/06/29 01:38:37;;;;;;;9.90;4.22;;;;;;;15.75;90.98;100904.13;5038608;28;20045;-55
2023/06/29 01:41:06;;;;;;;8.25;4.20;;;;;;;15.72;91.36;100899.91;5026948;28;20045;-57
2023/06/29 01:43:34;;;;;;;7.03;3.75;;;;;;;15.69;91.48;100898.31;5030743;28;20067;-57
2023/06/29 01:46:02;;;;;;;7.70;4.68;;;;;;;15.66;91.97;100898.56;5039296;28;20067;-54
2023/06/29 01:48:30;;;;;;;9.55;4.22;;;;;;;15.63;92.28;100889.97;5046614;28;20120;-53
2023/06/29 01:50:58;;;;;;;7.68;4.13;;;;;;;15.60;92.71;100887.53;5018444;28;20569;-59
2023/06/29 01:53:25;;;;;;;8.13;4.45;;;;;;;15.58;93.27;100895.63;5044209;28;20144;-56
2023/06/29 01:55:52;;;;;;;5.75;4.32;;;;;;;15.56;93.66;100894.88;5044807;28;20045;-55
2023/06/29 01:58:19;;;;;;;6.00;3.58;;;;;;;15.53;94.29;100891.59;5044814;28;20059;-54
2023/06/29 02:00:47;;;;;;;7.63;3.95;;;;;;;15.50;94.33;100889.19;5050424;28;20089;-54
2023/06/29 02:03:14;;;;;;;9.80;4.07;;;;;;;15.50;94.95;100897.16;5044707;28;20061;-53
2023/06/29 02:05:41;;;;;;;6.47;3.92;;;;;;;15.45;95.39;100889.56;5046162;28;20732;-57
2023/06/29 02:08:09;;;;;;;7.15;4.50;;;;;;;15.41;95.54;100885.44;5042558;28;20105;-56
2023/06/29 02:14:54;;;;;;;9.15;4.03;;;;;;;15.35;96.24;100883.22;5034254;28;20087;-57
2023/06/29 02:17:21;;;;;;;11.20;4.53;;;;;;;15.31;96.37;100882.63;5052299;28;20128;-56
2023/06/29 02:19:49;;;;;;;11.80;4.13;;;;;;;15.29;96.67;100884.53;5043985;28;20057;-57
2023/06/29 02:22:16;;;;;;;9.68;4.00;;;;;;;15.24;97.31;100889.34;5044219;28;20083;-55
2023/06/29 02:24:43;;;;;;;9.57;4.57;;;;;;;15.23;97.68;100894.75;5037541;28;20167;-58
2023/06/29 02:27:10;;;;;;;7.63;4.40;;;;;;;15.18;97.83;100890.66;5046819;28;20504;-56
2023/06/29 02:29:38;;;;;;;9.48;4.22;;;;;;;15.17;98.05;100890.72;5048905;28;20079;-57
2023/06/29 02:32:05;;;;;;;7.18;4.60;;;;;;;15.15;98.22;100890.84;5050073;28;20365;-55
2023/06/29 02:34:32;;;;;;;12.15;4.63;;;;;;;15.14;98.62;100894.47;5036588;28;20141;-51
2023/06/29 02:37:00;;;;;;;9.05;5.00;;;;;;;15.12;98.74;100898.19;5046974;28;20505;-56
2023/06/29 02:39:27;;;;;;;9.48;4.53;;;;;;;15.10;98.74;100892.16;5048416;28;20148;-53
2023/06/29 02:41:54;;;;;;;8.45;4.20;;;;;;;15.09;98.87;100891.31;5045385;28;20092;-58
2023/06/29 02:44:21;;;;;;;9.00;4.70;;;;;;;15.07;98.97;100889.72;5049623;28;20059;-55
2023/06/29 02:46:48;;;;;;;5.95;4.30;;;;;;;15.06;99.13;100894.19;5057754;28;20045;-55
2023/06/29 02:49:16;;;;;;;13.02;4.75;;;;;;;15.07;99.25;100898.53;5045292;28;20672;-54
2023/06/29 02:51:43;;;;;;;9.77;5.00;;;;;;;15.05;99.32;100895.16;5043441;28;20063;-57
2023/06/29 02:54:10;;;;;;;12.75;4.93;;;;;;;15.05;99.55;100892.50;5048611;28;20141;-57
2023/06/29 02:56:38;;;;;;;9.80;4.80;;;;;;;15.05;99.42;100897.81;5049522;28;20144;-58
2023/06/29 02:59:05;;;;;;;11.00;4.60;;;;;;;15.05;99.58;100895.16;5047815;28;20067;-57
2023/06/29 03:01:32;;;;;;;10.70;5.30;;;;;;;15.08;99.61;100889.59;5055672;28;20071;-55
2023/06/29 03:03:59;;;;;;;8.65;5.55;;;;;;;15.09;99.87;100890.47;5049775;28;20045;-55
2023/06/29 03:06:26;;;;;;;11.43;6.68;;;;;;;15.09;100.00;100893.13;5048418;28;20044;-57
2023/06/29 03:08:54;;;;;;;11.10;6.45;;;;;;;15.09;100.00;100893.13;5044417;28;20439;-57
2023/06/29 03:11:21;;;;;;;13.07;7.50;;;;;;;15.10;100.00;100889.50;5048882;28;20171;-52
2023/06/29 03:13:50;;;;;;;12.40;6.70;;;;;;;15.12;100.00;100891.06;5048011;28;20052;-56
2023/06/29 03:16:18;;;;;;;11.07;7.18;;;;;;;15.15;100.00;100892.66;5057272;28;20066;-55
2023/06/29 03:18:45;;;;;;;10.88;6.47;;;;;;;15.18;100.00;100900.41;5049744;28;20049;-52
2023/06/29 03:21:16;;;;;;;13.57;6.40;;;;;;;15.20;100.00;100901.97;5049069;28;20080;-55
2023/06/29 03:23:45;;;;;;;13.65;7.18;;;;;;;15.24;100.00;100899.94;5045039;28;20045;-56
2023/06/29 03:26:13;;;;;;;12.57;7.72;;;;;;;15.29;100.00;100899.59;5047685;28;20534;-54
2023/06/29 03:28:40;;;;;;;10.20;6.38;;;;;;;15.34;100.00;100905.41;5049771;28;20818;-55
2023/06/29 03:31:08;;;;;;;13.05;7.72;;;;;;;15.38;100.00;100905.06;5047768;28;20072;-57
2023/06/29 03:33:35;;;;;;;10.52;6.55;;;;;;;15.41;100.00;100901.34;5061161;22;20339;-47
2023/06/29 03:36:04;;;;;;;14.60;7.20;;;;;;;15.44;100.00;100899.31;5025238;28;20144;-52
2023/06/29 03:38:31;;;;;;;9.60;6.95;;;;;;;15.48;100.00;100897.25;5035049;28;20073;-48
2023/06/29 03:40:59;;;;;;;9.18;6.35;;;;;;;15.50;100.00;100900.66;5023242;28;20050;-46
2023/06/29 03:43:26;;;;;;;10.43;6.70;;;;;;;15.50;100.00;100903.31;5028279;28;20071;-52
2023/06/29 03:45:53;;;;;;;12.35;6.97;;;;;;;15.53;100.00;100907.53;5031371;28;20086;-48
2023/06/29 03:48:22;;;;;;;10.35;6.80;;;;;;;15.55;100.00;100909.13;5031343;28;20063;-48
2023/06/29 03:50:49;;;;;;;11.55;7.57;;;;;;;15.58;100.00;100910.66;5027089;28;20219;-45
2023/06/29 03:53:16;;;;;;;12.05;6.15;;;;;;;15.62;99.44;100905.03;5029774;28;20054;-48
2023/06/29 03:55:44;;;;;;;10.50;5.97;;;;;;;15.68;99.08;100904.59;5031534;28;20089;-49
2023/06/29 03:58:11;;;;;;;10.43;6.78;;;;;;;15.74;98.51;100908.59;5027876;28;20609;-50
2023/06/29 04:00:38;;;;;;;7.43;6.03;;;;;;;15.80;97.76;100908.13;5028407;28;20064;-50
2023/06/29 04:03:06;;;;;;;9.15;6.25;;;;;;;15.87;97.54;100906.69;5033144;28;20066;-50
2023/06/29 04:05:33;;;;;;;9.70;5.90;;;;;;;15.94;96.90;100902.63;5028966;28;20569;-50
2023/06/29 04:08:05;;;;;;;8.60;5.68;;;;;;;16.02;96.30;100903.81;5033877;28;20136;-47
2023/06/29 04:10:33;;;;;;;8.50;5.28;;;;;;;16.11;95.84;100906.59;5035596;28;20121;-48
2023/06/29 04:13:01;;;;;;;10.55;5.70;;;;;;;16.24;95.18;100908.31;5027431;28;20141;-50
2023/06/29 04:15:28;;;;;;;10.48;5.70;;;;;;;16.36;94.47;100907.38;5027486;28;20123;-49
2023/06/29 04:17:56;;;;;;;8.98;5.75;;;;;;;16.48;93.62;100909.06;5024670;28;20045;-49
2023/06/29 04:20:24;;;;;;;10.40;5.32;;;;;;;16.61;92.34;100907.09;5026365;28;20635;-48
2023/06/29 04:22:51;;;;;;;12.70;6.13;;;;;;;16.73;92.11;100909.78;5026584;28;20065;-48
2023/06/29 04:25:18;;;;;;;10.32;5.65;;;;;;;16.84;91.10;100902.66;5028117;28;20068;-50
2023/06/29 04:27:46;;;;;;;13.60;5.80;;;;;;;16.95;91.32;100912.41;5029710;28;20141;-47
2023/06/29 04:30:17;;;;;;;8.32;4.38;;;;;;;16.96;89.92;100906.94;5026100;28;20053;-47
2023/06/29 04:32:46;;;;;;;8.82;4.20;;;;;;;16.98;88.80;100901.53;5029075;28;20137;-49
2023/06/29 04:35:13;;;;;;;11.73;5.22;;;;;;;17.04;88.19;100901.00;5027817;28;20060;-49
2023/06/29 04:37:41;;;;;;;7.38;4.47;;;;;;;17.10;88.16;100897.84;5026425;28;20041;-50
2023/06/29 04:40:09;;;;;;;7.82;4.45;;;;;;;17.12;88.38;100900.41;5024619;28;20122;-49
2023/06/29 04:42:43;;;;;;;7.30;4.10;;;;;;;17.17;88.59;100907.03;5022994;28;20136;-48
2023/06/29 04:45:12;;;;;;;10.68;4.57;;;;;;;17.18;88.58;100906.03;5024403;28;20055;-47
2023/06/29 04:47:40;;;;;;;9.80;4.22;;;;;;;17.21;88.62;100900.47;5029415;28;20046;-47
2023/06/29 04:50:08;;;;;;;10.77;4.65;;;;;;;17.24;88.03;100899.38;5023811;28;20058;-48
2023/06/29 04:52:36;;;;;;;9.43;4.53;;;;;;;17.26;87.84;100901.91;5024581;28;20412;-47
2023/06/29 04:55:04;;;;;;;7.57;4.18;;;;;;;17.28;87.71;100902.63;5028203;28;20064;-48
2023/06/29 04:57:31;;;;;;;12.77;5.22;;;;;;;17.27;86.37;100892.97;5023745;28;20071;-47
2023/06/29 04:59:59;;;;;;;9.18;4.25;;;;;;;17.33;86.62;100895.09;5027863;28;20041;-48
2023/06/29 05:02:26;;;;;;;5.93;4.50;;;;;;;17.36;85.48;100892.19;5029336;28;20046;-46
2023/06/29 05:04:53;;;;;;;13.77;4.57;;;;;;;17.41;85.21;100887.31;5024864;28;20059;-47
2023/06/29 05:07:20;;;;;;;10.65;4.93;;;;;;;17.50;84.62;100889.22;5026630;28;20059;-48
2023/06/29 05:09:48;;;;;;;8.40;4.20;;;;;;;17.60;84.39;100891.94;5016106;28;20054;-50
2023/06/29 05:12:15;;;;;;;12.25;4.30;;;;;;;17.72;84.08;100893.59;5024251;28;20517;-50
2023/06/29 05:14:42;;;;;;;5.45;3.20;;;;;;;17.88;83.65;100895.84;5018421;28;20069;-46
2023/06/29 05:17:09;;;;;;;12.60;4.80;;;;;;;18.03;82.71;100894.50;5023497;28;20045;-49
2023/06/29 05:19:37;;;;;;;7.50;3.72;;;;;;;18.20;81.82;100893.06;5016678;28;20057;-49
2023/06/29 05:22:04;;;;;;;8.13;4.30;;;;;;;18.36;81.15;100897.88;5014137;28;20060;-50
2023/06/29 05:24:31;;;;;;;6.43;4.00;;;;;;;18.54;79.92;100896.28;5011343;28;20158;-53
2023/06/29 05:26:59;;;;;;;9.85;4.85;;;;;;;18.57;78.18;100889.84;5020509;28;20495;-45
2023/06/29 05:29:26;;;;;;;8.13;4.40;;;;;;;18.64;76.73;100890.97;5024492;28;20060;-47
2023/06/29 05:31:53;;;;;;;17.70;5.30;;;;;;;18.64;75.95;100897.16;5020887;28;20428;-50
2023/06/29 05:34:21;;;;;;;6.95;4.22;;;;;;;18.77;75.59;100891.59;5026112;28;20049;-45
2023/06/29 05:36:48;;;;;;;8.35;4.53;;;;;;;18.97;75.46;100901.34;5024676;28;20484;-48
2023/06/29 05:39:15;;;;;;;7.68;3.72;;;;;;;19.10;74.79;100893.06;5023832;28;20113;-48
2023/06/29 05:41:43;;;;;;;8.82;4.03;;;;;;;19.27;73.73;100899.53;5026067;28;20061;-47
2023/06/29 05:44:10;;;;;;;13.65;4.68;;;;;;;19.29;71.81;100897.56;5019879;28;20052;-49
2023/06/29 05:46:37;;;;;;;11.48;4.70;;;;;;;19.46;72.47;100896.03;5013095;28;20053;-48
2023/06/29 05:49:05;;;;;;;10.48;5.30;;;;;;;19.61;71.62;100897.31;5022850;28;20049;-51
2023/06/29 05:51:34;;;;;;;9.15;4.88;;;;;;;19.59;71.14;100898.44;5020662;28;20049;-50
2023/06/29 05:54:02;;;;;;;14.93;4.88;;;;;;;19.54;70.40;100900.66;5018290;28;20180;-51
2023/06/29 05:56:29;;;;;;;12.05;4.63;;;;;;;19.54;70.74;100901.50;5018637;28;20053;-51
2023/06/29 05:58:56;;;;;;;13.18;4.78;;;;;;;19.62;70.92;100899.00;5022843;28;20565;-47
2023/06/29 06:01:24;;;;;;;12.43;4.65;;;;;;;19.66;70.78;100899.56;5028838;28;20136;-46
2023/06/29 06:03:51;;;;;;;12.95;4.68;;;;;;;19.69;69.99;100900.13;5024188;28;20054;-46
2023/06/29 06:06:18;;;;;;;10.05;4.30;;;;;;;19.84;69.83;100900.50;5025796;28;20072;-52
2023/06/29 06:08:45;;;;;;;11.48;3.95;;;;;;;20.01;69.30;100904.28;5029157;28;21056;-50
2023/06/29 06:11:13;;;;;;;6.35;3.90;;;;;;;20.16;68.83;100901.97;5028452;28;20489;-47
2023/06/29 06:13:40;;;;;;;6.82;3.55;;;;;;;20.30;68.88;100896.16;5025562;28;20053;-47
2023/06/29 06:16:07;;;;;;;10.60;4.78;;;;;;;20.47;68.43;100900.75;5028753;28;20505;-50
2023/06/29 06:18:34;;;;;;;10.90;4.60;;;;;;;20.62;68.11;100902.94;5030923;28;20050;-46
2023/06/29 06:21:01;;;;;;;12.00;4.30;;;;;;;20.61;66.00;100902.09;5027298;28;20549;-51
2023/06/29 06:23:29;;;;;;;11.27;4.72;;;;;;;20.71;67.02;100900.22;5024077;28;20057;-52
2023/06/29 06:26:00;;;;;;;6.63;3.15;;;;;;;20.82;66.33;100899.16;5026200;28;20045;-52
2023/06/29 06:28:28;;;;;;;8.90;3.05;;;;;;;20.84;65.01;100886.47;5029906;28;20132;-48
2023/06/29 06:30:55;;;;;;;10.60;3.85;;;;;;;20.88;64.03;100889.69;5026218;28;20049;-48
2023/06/29 06:33:22;;;;;;;8.20;3.25;;;;;;;20.91;64.25;100886.72;5027220;28;20072;-51
2023/06/29 06:35:50;;;;;;;7.35;3.28;;;;;;;20.96;63.34;100889.78;5029524;28;20049;-53
2023/06/29 06:38:17;;;;;;;10.00;3.42;;;;;;;20.86;62.78;100886.34;5026458;28;20042;-47
2023/06/29 06:40:45;;;;;;;9.25;3.00;;;;;;;20.93;63.11;100884.72;5026068;28;20064;-49
2023/06/29 06:43:12;;;;;;;7.57;3.42;;;;;;;21.15;62.63;100888.81;5027626;28;20057;-50
2023/06/29 06:45:40;;;;;;;6.22;2.92;;;;;;;21.05;61.88;100883.53;5026271;28;20123;-46
2023/06/29 06:48:07;;;;;;;11.13;3.47;;;;;;;21.17;60.08;100889.50;5026340;28;20052;-53
2023/06/29 06:50:38;;;;;;;6.47;2.40;;;;;;;21.21;58.57;100893.56;5021072;28;20065;-48
2023/06/29 06:53:05;;;;;;;9.20;3.00;;;;;;;21.30;59.04;100889.97;5018333;28;20605;-49
2023/06/29 06:55:32;;;;;;;6.32;2.22;;;;;;;21.47;58.39;100889.13;5025424;28;20061;-47
2023/06/29 06:58:00;;;;;;;12.48;2.67;;;;;;;21.60;56.22;100882.53;5023048;28;20505;-47
2023/06/29 07:00:27;;;;;;;6.60;2.58;;;;;;;21.71;56.68;100880.47;5029493;28;20067;-48
2023/06/29 07:02:54;;;;;;;7.60;2.13;;;;;;;21.92;56.16;100884.59;5026146;28;20056;-50
2023/06/29 07:05:22;;;;;;;9.02;2.17;;;;;;;22.06;54.43;100883.19;5029398;28;20068;-53
2023/06/29 07:07:51;;;;;;;5.45;2.08;;;;;;;22.15;54.49;100890.28;5034235;28;20045;-45
2023/06/29 07:10:18;;;;;;;2.22;1.50;;;;;;;22.18;53.15;100884.63;5024263;28;20053;-50
2023/06/29 07:12:46;;;;;;;4.90;1.65;;;;;;;22.36;53.15;100887.22;5027628;28;20067;-50
2023/06/29 07:15:14;;;;;;;5.70;1.85;;;;;;;22.51;52.50;100885.59;5029670;28;20077;-46
2023/06/29 07:17:41;;;;;;;6.18;2.25;;;;;;;22.48;52.79;100885.94;5041207;28;20049;-47
2023/06/29 07:20:09;;;;;;;6.47;1.85;;;;;;;22.55;52.95;100878.09;5034382;28;20140;-47
2023/06/29 07:22:39;;;;;;;4.85;2.10;;;;;;;22.57;53.31;100887.66;5035936;28;20053;-44
2023/06/29 07:25:11;;;;;;;3.88;1.65;;;;;;;21.94;52.58;100887.97;5035046;28;20489;-48
2023/06/29 07:27:38;;;;;;;4.25;2.05;;;;;;;21.97;54.39;100880.47;5028970;28;20476;-51
2023/06/29 07:30:06;;;;;;;3.28;1.70;;;;;;;22.12;55.04;100888.78;5027848;28;20125;-48
2023/06/29 07:32:33;;;;;;;5.65;1.90;;;;;;;21.81;53.85;100884.88;5027696;28;20053;-47
2023/06/29 07:35:00;;;;;;;5.10;1.55;;;;;;;21.97;54.14;100887.66;5029484;28;20050;-48
2023/06/29 07:37:28;;;;;;;6.65;1.55;;;;;;;21.96;54.57;100877.94;5027811;28;20060;-49
2023/06/29 07:39:55;;;;;;;4.63;1.33;;;;;;;22.15;53.40;100880.41;5026455;28;20144;-48
2023/06/29 07:42:22;;;;;;;3.65;1.80;;;;;;;22.24;52.48;100876.81;5025468;28;20064;-55
2023/06/29 07:45:06;;;;;;;4.93;1.60;;;;;;;22.19;53.41;100872.88;5027603;28;20141;-50
2023/06/29 07:47:33;;;;;;;5.28;2.10;;;;;;;22.20;53.35;100871.91;5033508;28;20049;-51
2023/06/29 07:50:00;;;;;;;3.47;1.73;;;;;;;22.07;53.12;100871.47;5030520;28;20057;-52
2023/06/29 07:52:30;;;;;;;3.67;1.70;;;;;;;22.21;53.42;100871.75;5025871;28;20597;-50
2023/06/29 07:54:58;;;;;;;3.33;1.48;;;;;;;22.38;53.57;100871.81;5024076;28;20654;-49
2023/06/29 07:57:25;;;;;;;3.70;1.40;;;;;;;22.23;51.70;100875.09;5025380;28;20045;-46
2023/06/29 07:59:55;;;;;;;5.55;2.05;;;;;;;22.03;52.58;100883.50;5021554;28;20081;-51
2023/06/29 08:02:22;;;;;;;2.72;1.65;;;;;;;22.21;52.81;100878.97;5025124;28;20110;-53
2023/06/29 08:04:50;;;;;;;4.35;1.58;;;;;;;22.16;54.32;100871.38;5030322;28;20112;-49
2023/06/29 08:07:21;;;;;;;6.43;1.92;;;;;;;22.19;54.78;100879.09;5025903;28;20055;-52
2023/06/29 08:09:50;;;;;;;10.25;2.17;;;;;;;22.26;54.00;100873.94;5021616;28;20088;-46
2023/06/29 08:12:17;;;;;;;5.75;1.63;;;;;;;22.24;52.75;100868.75;5020249;28;20055;-47
2023/06/29 08:14:45;;;;;;;4.00;1.52;;;;;;;22.13;53.34;100873.53;5020705;28;20082;-49
2023/06/29 08:17:12;;;;;;;2.13;1.50;;;;;;;22.12;52.63;100872.72;5034120;28;20049;-53
2023/06/29 08:19:39;;;;;;;3.78;1.40;;;;;;;22.22;52.51;100873.41;5029329;28;20095;-49
2023/06/29 08:22:06;;;;;;;4.65;1.30;;;;;;;22.34;51.61;100867.78;5028069;28;20413;-47
2023/06/29 08:24:33;;;;;;;3.55;1.33;;;;;;;22.64;51.13;100872.56;5023820;28;20051;-47
2023/06/29 08:27:01;;;;;;;7.53;1.67;;;;;;;22.88;51.49;100865.63;5027502;28;20073;-49
2023/06/29 08:29:28;;;;;;;2.47;1.30;;;;;;;22.89;51.35;100861.94;5022494;28;20049;-48
2023/06/29 08:31:55;;;;;;;5.18;2.15;;;;;;;23.11;51.00;100860.50;5033140;28;20153;-48
2023/06/29 08:34:23;;;;;;;2.35;1.65;;;;;;;23.26;50.90;100869.56;5032147;28;20056;-46
2023/06/29 08:36:50;;;;;;;3.65;1.50;;;;;;;23.35;51.39;100859.66;5024458;28;20072;-51
2023/06/29 08:39:19;;;;;;;3.50;1.40;;;;;;;23.13;51.72;100870.03;5026062;28;20512;-49
2023/06/29 08:41:46;;;;;;;3.78;1.70;;;;;;;23.13;51.59;100870.03;5026273;28;20065;-49
2023/06/29 08:44:13;;;;;;;5.35;1.83;;;;;;;23.11;51.29;100871.22;5025576;28;20045;-48
2023/06/29 08:46:41;;;;;;;4.95;1.45;;;;;;;22.99;51.49;100868.84;5024149;28;20072;-47
2023/06/29 08:49:09;;;;;;;4.68;1.50;;;;;;;23.03;50.52;100865.84;5028671;28;20046;-48
2023/06/29 08:51:39;;;;;;;3.92;1.45;;;;;;;23.07;50.63;100869.88;5025686;28;20069;-51
2023/06/29 08:54:06;;;;;;;2.80;1.23;;;;;;;23.07;50.15;100864.50;5026759;28;20049;-46
2023/06/29 08:56:34;;;;;;;2.58;1.73;;;;;;;22.84;51.09;100861.59;5021398;28;20428;-47
2023/06/29 08:59:01;;;;;;;3.60;1.35;;;;;;;23.00;51.02;100867.84;5023581;28;20088;-47
2023/06/29 09:01:30;;;;;;;4.15;1.58;;;;;;;22.92;51.11;100873.22;5027498;28;20057;-48
2023/06/29 09:03:57;;;;;;;6.28;1.63;;;;;;;23.09;51.48;100865.16;5030721;28;20075;-46
2023/06/29 09:06:26;;;;;;;3.92;1.83;;;;;;;22.93;52.82;100868.69;5026325;28;21709;-47
2023/06/29 09:08:56;;;;;;;4.75;2.30;;;;;;;23.13;52.52;100866.53;5025553;28;20096;-46
2023/06/29 09:11:23;;;;;;;14.77;1.90;;;;;;;23.14;52.42;100870.88;5030375;28;20706;-46
2023/06/29 09:13:51;;;;;;;3.03;1.50;;;;;;;23.10;51.47;100869.53;5024213;28;20393;-50
2023/06/29 09:16:18;;;;;;;4.40;1.88;;;;;;;23.07;51.83;100875.25;5029170;28;20045;-48
2023/06/29 09:18:50;;;;;;;2.42;1.33;;;;;;;22.50;52.13;100870.53;5026296;28;20041;-47
2023/06/29 09:21:18;;;;;;;4.30;1.55;;;;;;;22.59;51.88;100861.50;5027100;28;20076;-46
2023/06/29 09:23:45;;;;;;;3.92;1.40;;;;;;;22.68;51.84;100868.56;5015973;28;20537;-47
2023/06/29 09:26:18;;;;;;;2.72;0.95;;;;;;;22.79;51.44;100861.25;5028616;28;20144;-49
2023/06/29 09:28:46;;;;;;;1.88;0.98;;;;;;;22.97;50.72;100859.28;5028780;28;20133;-48
2023/06/29 09:31:13;;;;;;;1.73;1.10;;;;;;;23.13;49.82;100866.53;5024639;28;20061;-48
2023/06/29 09:33:41;;;;;;;1.48;0.98;;;;;;;23.31;50.26;100866.38;5031500;28;20057;-49
2023/06/29 09:36:08;;;;;;;4.47;1.30;;;;;;;23.41;49.81;100861.66;5026165;28;20398;-50
2023/06/29 09:38:37;;;;;;;3.17;1.10;;;;;;;23.62;50.08;100864.69;5047200;22;20045;-54
2023/06/29 09:41:05;;;;;;;3.05;1.15;;;;;;;23.68;49.44;100860.50;5018953;28;20145;-51
2023/06/29 09:43:32;;;;;;;5.57;1.63;;;;;;;23.74;49.09;100857.97;5022762;28;20095;-54
2023/06/29 09:46:07;;;;;;;3.38;1.52;;;;;;;24.00;49.23;100860.47;5022819;28;20085;-52
2023/06/29 09:48:47;;;;;;;5.07;1.65;;;;;;;24.09;48.61;100858.59;5022479;28;20064;-52
2023/06/29 09:51:22;;;;;;;4.20;1.88;;;;;;;23.98;49.14;100857.09;5026599;28;20034;-53
2023/06/29 09:53:49;;;;;;;3.15;1.77;;;;;;;23.93;50.11;100853.25;5022876;28;20053;-52
2023/06/29 09:56:17;;;;;;;2.45;1.10;;;;;;;24.36;49.50;100843.00;5028710;28;20071;-51
2023/06/29 09:58:45;;;;;;;2.03;1.10;;;;;;;24.13;48.93;100854.50;5027051;28;20129;-52
2023/06/29 10:01:15;;;;;;;3.13;1.20;;;;;;;24.17;49.50;100849.63;5021616;28;20517;-53
2023/06/29 10:03:44;;;;;;;5.82;1.95;;;;;;;24.54;48.58;100846.31;5027670;28;20057;-50
2023/06/29 10:06:15;;;;;;;4.32;1.58;;;;;;;24.70;48.18;100840.84;5024979;28;20132;-54
2023/06/29 10:08:42;;;;;;;3.67;1.98;;;;;;;24.95;47.58;100840.69;5022870;28;20059;-54
2023/06/29 10:11:09;;;;;;;3.90;1.58;;;;;;;25.09;48.05;100837.25;5023989;28;20053;-52
2023/06/29 10:13:39;;;;;;;6.65;2.22;;;;;;;24.63;47.60;100839.03;5024015;28;20141;-57
2023/06/29 10:16:09;;;;;;;6.30;1.73;;;;;;;24.49;48.28;100846.81;5021688;28;20107;-55
2023/06/29 10:18:42;;;;;;;4.68;1.63;;;;;;;24.98;48.29;100851.09;5023056;28;20045;-55
2023/06/29 10:21:10;;;;;;;4.63;1.75;;;;;;;25.16;47.59;100843.59;5026762;28;20474;-52
2023/06/29 10:23:38;;;;;;;4.18;2.08;;;;;;;24.88;47.17;100837.03;5023381;28;20069;-53
2023/06/29 10:26:06;;;;;;;4.20;1.50;;;;;;;24.74;47.70;100836.78;5025253;28;20067;-53
2023/06/29 10:28:33;;;;;;;2.70;1.50;;;;;;;25.06;48.06;100831.34;5022645;28;20073;-52
2023/06/29 10:31:00;;;;;;;3.95;1.60;;;;;;;25.28;46.82;100829.69;5018864;28;20059;-54
2023/06/29 10:33:28;;;;;;;3.45;1.60;;;;;;;25.19;46.70;100832.47;5019074;28;20046;-53
2023/06/29 10:36:01;;;;;;;5.45;1.83;;;;;;;24.98;46.90;100822.31;5023078;28;20091;-55
2023/06/29 10:38:32;;;;;;;3.88;1.40;;;;;;;25.40;46.79;100820.16;5021680;28;20601;-52
2023/06/29 10:41:00;;;;;;;5.47;1.83;;;;;;;25.64;45.99;100817.22;5018964;28;20129;-52
2023/06/29 10:43:27;;;;;;;4.05;1.77;;;;;;;25.69;45.48;100820.19;5023966;28;20520;-53
2023/06/29 10:45:55;;;;;;;2.78;1.60;;;;;;;25.81;46.17;100817.09;5023236;28;20053;-52
2023/06/29 10:48:23;;;;;;;7.75;1.92;;;;;;;25.51;45.51;100812.47;5022688;28;20064;-56
2023/06/29 10:51:12;;;;;;;3.83;1.80;;;;;;;25.13;45.76;100818.88;5025703;28;20140;-53
2023/06/29 10:53:39;;;;;;;5.85;1.95;;;;;;;25.79;45.71;100816.44;5022098;28;20053;-50
2023/06/29 10:56:30;;;;;;;5.25;1.63;;;;;;;26.20;44.15;100806.00;5022897;28;20053;-50
2023/06/29 10:58:58;;;;;;;2.97;1.92;;;;;;;26.27;43.32;100802.38;5027218;28;20052;-52
2023/06/29 11:01:25;;;;;;;4.15;2.10;;;;;;;26.48;42.52;100798.91;5028306;28;20144;-52
2023/06/29 11:03:52;;;;;;;6.25;2.30;;;;;;;26.61;42.52;100797.38;5029657;28;20130;-51
2023/06/29 11:06:20;;;;;;;3.63;1.70;;;;;;;26.39;43.73;100804.59;5029167;28;20053;-50
2023/06/29 11:09:10;;;;;;;6.82;2.00;;;;;;;25.95;43.56;100798.22;5029149;28;20115;-51
2023/06/29 11:11:38;;;;;;;4.30;2.40;;;;;;;26.45;43.78;100802.00;5028354;28;20084;-54
2023/06/29 11:14:06;;;;;;;4.18;2.00;;;;;;;26.85;42.78;100794.31;5029165;28;20077;-50
2023/06/29 11:16:34;;;;;;;3.28;1.73;;;;;;;27.15;42.60;100797.72;5029107;28;20045;-55
2023/06/29 11:19:02;;;;;;;6.10;2.72;;;;;;;26.99;42.31;100801.53;5030857;28;20137;-56
2023/06/29 11:21:29;;;;;;;5.63;2.30;;;;;;;26.99;42.21;100801.53;5031308;28;20141;-50
2023/06/29 11:23:57;;;;;;;5.85;2.30;;;;;;;27.02;42.13;100795.75;5025945;28;20053;-51
2023/06/29 11:26:26;;;;;;;5.07;2.15;;;;;;;27.16;42.51;100791.31;5028901;28;20057;-53
2023/06/29 11:28:54;;;;;;;5.50;2.72;;;;;;;26.97;43.21;100791.91;5022123;28;20144;-53
2023/06/29 11:31:22;;;;;;;6.38;1.90;;;;;;;27.21;42.55;100788.84;5026248;28;20073;-55